Conover, North Carolina
Current Conditions -  °F | °C
As of 8:53 PM on Tuesday 25 Nov 2014 (Local Time) from KHKY Reporting Station
Scattered Clouds Scattered Clouds  
Wind Chill:   Ceiling: Unl
Heat Index:   Visibility: 10mi
Dew Point:   Wind: 0mph
Humidity: 66%   Direction: NA
Pressure: 30.07"   Gusts: NA
Location:  35.71°N, 81.22°W
Report Text: KHKY 260153Z 00000KT 10SM SCT120 09/03 A3007 RMK AO2 SLP172 T00940033
Loading
Personal Weather Stations






























Interactive Weather Map New forecast layout! Learn more

10-Day Weather Forecast

Advertisements
Track Severe Weather on mobile